Time;durP1;ratioP1;P1;durP2;ratioP2;P2;SDS_P1;SDS_P2;PMS_P1;PMS_P2;Temp;Humidity;BMP_temperature;BMP_pressure;BME280_temperature;BME280_humidity;BME280_pressure;Samples;Min_cycle;Max_cycle;Signal;HPM_P1;HPM_P2
2021/10/23 00:00:32;;;;;;;39.65;21.70;;;;;;;10.41;81.34;100739.78;1707404;84;21257;-63
2021/10/23 00:03:06;;;;;;;38.73;21.25;;;;;;;10.42;81.24;100738.84;1707077;84;21288;-62
2021/10/23 00:05:50;;;;;;;37.10;21.65;;;;;;;10.44;81.16;100743.94;1707452;84;21860;-62
2021/10/23 00:08:23;;;;;;;39.08;21.27;;;;;;;10.45;81.00;100736.45;1707534;84;21261;-62
2021/10/23 00:10:59;;;;;;;31.35;21.93;;;;;;;10.46;80.97;100733.70;1707186;84;21263;-62
2021/10/23 00:13:34;;;;;;;38.20;21.27;;;;;;;10.49;80.86;100736.08;1707503;84;21276;-61
2021/10/23 00:16:10;;;;;;;37.05;20.97;;;;;;;10.51;80.76;100736.78;1707188;84;21146;-62
2021/10/23 00:18:45;;;;;;;37.00;20.02;;;;;;;10.53;80.77;100741.91;1707471;84;21296;-64
2021/10/23 00:21:28;;;;;;;37.20;21.77;;;;;;;10.55;80.79;100742.14;1707391;84;21308;-63
2021/10/23 00:24:06;;;;;;;37.48;21.62;;;;;;;10.59;80.71;100734.39;1707522;84;21225;-64
2021/10/23 00:26:41;;;;;;;39.20;21.85;;;;;;;10.61;80.61;100732.94;1707345;84;21299;-63
2021/10/23 00:29:17;;;;;;;45.10;22.05;;;;;;;10.63;80.48;100729.72;1685485;84;21154;-64
2021/10/23 00:31:54;;;;;;;41.50;22.20;;;;;;;10.62;80.42;100736.77;1707046;84;21445;-65
2021/10/23 00:34:35;;;;;;;46.45;23.50;;;;;;;10.64;80.32;100736.16;1705763;84;21170;-64
2021/10/23 00:37:08;;;;;;;42.90;21.90;;;;;;;10.65;80.24;100727.83;1706971;84;21193;-64
2021/10/23 00:39:44;;;;;;;36.93;20.80;;;;;;;10.65;80.23;100735.69;1704705;84;21205;-65
2021/10/23 00:42:17;;;;;;;46.42;27.15;;;;;;;10.66;80.28;100734.71;1707232;84;21300;-65
2021/10/23 00:44:56;;;;;;;37.45;23.12;;;;;;;10.66;80.24;100731.63;1684823;84;22133;-65
2021/10/23 00:47:29;;;;;;;34.10;20.68;;;;;;;10.66;80.08;100735.55;1707067;84;21304;-64
2021/10/23 00:50:04;;;;;;;38.50;21.00;;;;;;;10.61;79.96;100730.33;1707325;84;21201;-63
2021/10/23 00:52:41;;;;;;;40.58;22.22;;;;;;;10.53;79.82;100727.52;1706914;84;21276;-63
2021/10/23 00:55:18;;;;;;;47.00;22.20;;;;;;;10.44;79.76;100731.69;1706691;84;21748;-63
2021/10/23 00:57:57;;;;;;;38.42;22.05;;;;;;;10.34;79.70;100735.19;1700482;84;21169;-64
2021/10/23 01:00:38;;;;;;;38.05;21.85;;;;;;;10.22;79.66;100734.38;1697834;83;21170;-63
2021/10/23 01:03:12;;;;;;;37.05;22.82;;;;;;;10.09;79.77;100738.41;1698544;84;21342;-63
2021/10/23 01:05:47;;;;;;;33.25;20.92;;;;;;;9.97;79.89;100739.38;1698317;84;21186;-64
2021/10/23 01:08:22;;;;;;;33.88;20.40;;;;;;;9.83;80.11;100737.01;1697741;84;21764;-64
2021/10/23 01:11:01;;;;;;;33.67;20.15;;;;;;;9.75;80.36;100732.00;1699143;84;21266;-64
2021/10/23 01:13:35;;;;;;;35.40;20.82;;;;;;;9.64;80.53;100735.47;1695247;84;21178;-64
2021/10/23 01:16:15;;;;;;;30.80;20.40;;;;;;;9.56;80.80;100734.38;1697703;84;21197;-64
2021/10/23 01:18:50;;;;;;;37.25;20.95;;;;;;;9.47;81.02;100747.22;1694814;84;21166;-64
2021/10/23 01:21:25;;;;;;;42.98;22.40;;;;;;;9.41;81.33;100748.13;1699404;84;21772;-64
2021/10/23 01:23:59;;;;;;;40.95;22.73;;;;;;;9.33;81.66;100757.88;1698231;84;21352;-63
2021/10/23 01:26:37;;;;;;;36.68;21.25;;;;;;;9.28;81.95;100745.64;1697684;83;21238;-64
2021/10/23 01:29:16;;;;;;;40.10;21.50;;;;;;;9.22;82.17;100750.00;1697615;83;21174;-64
2021/10/23 01:31:54;;;;;;;41.77;22.25;;;;;;;9.20;82.44;100754.52;1699332;84;21194;-65
2021/10/23 01:34:31;;;;;;;40.20;21.87;;;;;;;9.16;82.56;100756.17;1698181;84;21361;-64
2021/10/23 01:37:04;;;;;;;44.55;22.45;;;;;;;9.11;82.64;100752.59;1697969;84;21205;-64
2021/10/23 01:39:46;;;;;;;39.45;21.77;;;;;;;9.05;82.63;100754.34;1699286;84;21847;-63
2021/10/23 01:42:20;;;;;;;35.20;22.17;;;;;;;8.97;82.67;100750.66;1699400;84;21178;-64
2021/10/23 01:45:02;;;;;;;41.55;22.35;;;;;;;8.91;82.79;100752.42;1699200;84;21155;-64
2021/10/23 01:47:42;;;;;;;44.65;23.07;;;;;;;8.85;83.00;100744.56;1699474;84;21154;-64
2021/10/23 01:50:23;;;;;;;43.42;24.77;;;;;;;8.80;83.07;100739.69;1699370;84;21265;-64
2021/10/23 01:53:01;;;;;;;47.17;23.92;;;;;;;8.75;83.14;100731.35;1675741;84;21170;-64
2021/10/23 01:55:34;;;;;;;40.58;24.50;;;;;;;8.68;83.35;100719.70;1699202;84;21162;-64
2021/10/23 01:58:12;;;;;;;37.20;24.37;;;;;;;8.64;83.53;100719.58;1701128;84;21287;-64
2021/10/23 02:00:52;;;;;;;45.25;24.90;;;;;;;8.59;83.67;100716.47;1705706;84;21173;-61
2021/10/23 02:03:31;;;;;;;47.40;26.77;;;;;;;8.55;83.85;100725.44;1705949;84;21181;-64
2021/10/23 02:06:11;;;;;;;51.98;25.48;;;;;;;8.47;83.92;100722.58;1706965;84;21296;-64
2021/10/23 02:08:44;;;;;;;48.68;25.92;;;;;;;8.43;84.12;100726.33;1707286;84;21295;-64
2021/10/23 02:11:22;;;;;;;44.65;24.82;;;;;;;8.37;84.24;100732.47;1707605;84;21265;-65
2021/10/23 02:13:58;;;;;;;38.53;23.10;;;;;;;8.33;84.37;100729.27;1706316;84;21771;-64
2021/10/23 02:16:33;;;;;;;36.40;21.55;;;;;;;8.29;84.43;100731.70;1705867;84;21173;-64
2021/10/23 02:19:08;;;;;;;43.73;23.42;;;;;;;8.24;84.61;100727.26;1706696;84;21831;-61
2021/10/23 02:21:46;;;;;;;41.15;23.67;;;;;;;8.23;84.78;100738.65;1707271;84;21776;-61
2021/10/23 02:24:20;;;;;;;50.48;26.42;;;;;;;8.18;84.75;100731.63;1707174;84;21296;-62
2021/10/23 02:27:01;;;;;;;45.10;24.75;;;;;;;8.10;84.78;100726.95;1706306;84;21245;-62
2021/10/23 02:29:33;;;;;;;44.93;25.37;;;;;;;8.03;84.83;100730.09;1706903;84;21181;-64
2021/10/23 02:32:08;;;;;;;55.43;27.00;;;;;;;7.95;84.87;100727.20;1705663;84;22052;-64
2021/10/23 02:34:42;;;;;;;51.95;29.18;;;;;;;7.87;84.93;100729.05;1706973;84;21288;-64
2021/10/23 02:37:16;;;;;;;63.42;33.42;;;;;;;7.84;85.19;100731.02;1706676;84;21677;-64
2021/10/23 02:39:53;;;;;;;58.05;32.13;;;;;;;7.79;85.46;100734.41;1706834;84;21303;-65
2021/10/23 02:42:33;;;;;;;48.50;28.98;;;;;;;7.77;85.67;100734.99;1707572;84;21209;-64
2021/10/23 02:45:09;;;;;;;45.60;25.27;;;;;;;7.74;85.82;100730.02;1706190;84;21842;-65
2021/10/23 02:47:43;;;;;;;46.40;27.02;;;;;;;7.74;86.17;100736.53;1706568;84;21300;-64
2021/10/23 02:50:18;;;;;;;48.20;26.82;;;;;;;7.76;86.61;100734.16;1706381;84;21292;-65
2021/10/23 02:52:54;;;;;;;55.35;29.50;;;;;;;7.79;86.93;100725.29;1707241;84;21295;-65
2021/10/23 02:55:30;;;;;;;53.10;29.57;;;;;;;7.81;87.17;100729.45;1706358;84;21288;-64
2021/10/23 02:58:11;;;;;;;57.33;28.87;;;;;;;7.85;87.35;100737.91;1706292;84;21276;-64
2021/10/23 03:00:42;;;;;;;54.30;29.35;;;;;;;7.85;87.52;100734.84;1704170;84;21293;-64
2021/10/23 03:03:21;;;;;;;54.23;29.10;;;;;;;7.87;87.71;100735.56;1699324;84;21674;-64
2021/10/23 03:05:56;;;;;;;48.33;27.37;;;;;;;7.87;87.76;100731.66;1698160;84;21280;-65
2021/10/23 03:08:37;;;;;;;55.40;27.82;;;;;;;7.87;87.76;100735.56;1698028;84;21304;-64
2021/10/23 03:11:15;;;;;;;49.40;26.12;;;;;;;7.83;87.50;100731.98;1698106;84;21340;-64
2021/10/23 03:13:55;;;;;;;41.28;25.25;;;;;;;7.74;87.26;100731.32;1699548;84;21293;-65
2021/10/23 03:16:27;;;;;;;41.58;26.07;;;;;;;7.67;87.20;100731.34;1698114;84;21301;-64
2021/10/23 03:19:04;;;;;;;47.13;25.02;;;;;;;7.59;87.24;100736.28;1697776;84;21256;-61
2021/10/23 03:21:38;;;;;;;42.98;26.68;;;;;;;7.54;87.41;100727.94;1698221;84;21301;-61
2021/10/23 03:24:14;;;;;;;44.73;24.55;;;;;;;7.52;87.55;100729.82;1699180;84;21308;-61
2021/10/23 03:26:51;;;;;;;44.33;24.47;;;;;;;7.51;87.64;100733.35;1697889;83;21177;-62
2021/10/23 03:29:27;;;;;;;47.67;25.20;;;;;;;7.51;87.98;100733.35;1699523;84;21155;-62
2021/10/23 03:32:02;;;;;;;41.30;24.18;;;;;;;7.53;88.39;100727.56;1699428;84;21265;-62
2021/10/23 03:34:36;;;;;;;47.67;23.95;;;;;;;7.55;88.66;100723.11;1697901;83;21202;-64
2021/10/23 03:37:14;;;;;;;43.52;24.47;;;;;;;7.58;88.89;100716.36;1697479;84;21213;-62
2021/10/23 03:39:54;;;;;;;43.98;23.67;;;;;;;7.59;88.97;100716.27;1699118;84;21273;-64
2021/10/23 03:42:32;;;;;;;40.65;22.65;;;;;;;7.58;89.01;100708.08;1699409;84;21821;-63
2021/10/23 03:45:07;;;;;;;40.35;24.05;;;;;;;7.55;89.04;100706.17;1699191;84;21300;-63
2021/10/23 03:47:50;;;;;;;44.60;24.50;;;;;;;7.54;89.16;100714.91;1698949;84;21223;-63
2021/10/23 03:50:33;;;;;;;48.10;24.70;;;;;;;7.54;89.24;100707.09;1699475;84;21281;-63
2021/10/23 03:53:13;;;;;;;60.65;35.08;;;;;;;7.51;89.24;100712.51;1698868;84;21344;-62
2021/10/23 03:55:46;;;;;;;66.47;39.08;;;;;;;7.52;89.29;100716.80;1698990;84;21309;-62
2021/10/23 03:58:23;;;;;;;47.55;29.50;;;;;;;7.51;89.38;100716.42;1698823;84;21162;-61
2021/10/23 04:00:59;;;;;;;105.95;61.77;;;;;;;7.54;89.42;100718.82;1698677;84;21217;-62
2021/10/23 04:03:38;;;;;;;79.62;51.35;;;;;;;7.54;89.46;100718.36;1705670;83;21752;-62
2021/10/23 04:06:14;;;;;;;48.02;26.42;;;;;;;7.57;89.53;100702.49;1706686;84;21344;-62
2021/10/23 04:08:53;;;;;;;42.45;24.82;;;;;;;7.60;89.58;100706.66;1705924;84;21973;-62
2021/10/23 04:11:30;;;;;;;62.98;31.20;;;;;;;7.62;89.52;100710.83;1705923;84;21312;-61
2021/10/23 04:14:08;;;;;;;64.03;33.85;;;;;;;7.64;89.46;100714.19;1685617;84;21265;-62
2021/10/23 04:16:46;;;;;;;73.10;34.98;;;;;;;7.69;89.40;100718.58;1705711;83;21161;-62
2021/10/23 04:19:23;;;;;;;48.50;28.57;;;;;;;7.79;89.25;100719.61;1706277;84;21316;-62
2021/10/23 04:21:57;;;;;;;43.15;26.87;;;;;;;7.91;89.07;100725.73;1706483;84;21165;-62
2021/10/23 04:24:30;;;;;;;;;;;;;;;8.06;89.01;100716.38;1709913;84;21268;-62
2021/10/23 04:27:08;;;;;;;66.20;38.35;;;;;;;8.27;88.70;100715.34;1705467;84;20176;-62
2021/10/23 04:29:43;;;;;;;49.88;27.35;;;;;;;8.49;88.33;100715.47;1706360;84;21297;-63
2021/10/23 04:32:20;;;;;;;51.02;26.40;;;;;;;8.79;87.85;100715.81;1706456;84;21169;-63
2021/10/23 04:34:56;;;;;;;48.98;25.75;;;;;;;9.14;87.13;100718.89;1707231;84;21154;-65
2021/10/23 04:37:30;;;;;;;51.45;29.35;;;;;;;9.55;86.33;100714.43;1706395;84;21300;-63
2021/10/23 04:40:09;;;;;;;46.85;25.90;;;;;;;9.90;85.07;100708.12;1706025;84;21273;-64
2021/10/23 04:42:45;;;;;;;52.48;26.17;;;;;;;10.02;83.98;100710.23;1706367;84;21324;-65
2021/10/23 04:45:22;;;;;;;51.02;25.15;;;;;;;9.98;83.42;100717.48;1707197;84;21316;-62
2021/10/23 04:47:59;;;;;;;49.77;24.02;;;;;;;9.96;83.32;100716.77;1705473;84;21268;-63
2021/10/23 04:50:32;;;;;;;43.63;24.25;;;;;;;9.94;83.12;100713.45;1707401;84;21143;-63
2021/10/23 04:53:05;;;;;;;46.63;25.77;;;;;;;9.94;82.91;100716.06;1706379;82;21186;-62
2021/10/23 04:55:39;;;;;;;;;;;;;;;9.92;82.68;100707.52;1707807;84;21680;-63
2021/10/23 04:58:17;;;;;;;46.70;26.15;;;;;;;9.90;82.45;100713.81;1706086;84;20271;-63
2021/10/23 05:00:56;;;;;;;44.18;23.87;;;;;;;9.85;82.52;100715.48;1706994;84;21264;-63
2021/10/23 05:03:31;;;;;;;43.52;24.45;;;;;;;9.84;82.35;100720.85;1702275;84;21234;-63
2021/10/23 05:06:09;;;;;;;41.75;24.57;;;;;;;9.78;82.27;100724.77;1699326;84;21733;-62
2021/10/23 05:08:43;;;;;;;44.25;25.68;;;;;;;9.75;82.36;100739.38;1699211;84;21194;-62
2021/10/23 05:11:22;;;;;;;41.92;25.00;;;;;;;9.75;82.62;100748.53;1699558;84;21182;-63
2021/10/23 05:13:58;;;;;;;43.38;24.43;;;;;;;9.77;82.72;100745.31;1699129;84;21289;-62
2021/10/23 05:16:31;;;;;;;43.10;25.32;;;;;;;9.77;82.79;100754.47;1699176;84;21157;-63
2021/10/23 05:19:13;;;;;;;48.83;26.35;;;;;;;9.82;82.88;100768.48;1698719;84;21268;-62
2021/10/23 05:21:52;;;;;;;44.18;27.35;;;;;;;9.85;82.88;100773.02;1698952;84;21292;-64
2021/10/23 05:24:41;;;;;;;54.63;27.93;;;;;;;9.89;82.91;100769.20;1683713;84;21313;-63
2021/10/23 05:27:15;;;;;;;128.50;63.45;;;;;;;9.94;82.89;100772.77;1651215;87;21792;-64
2021/10/23 05:29:53;;;;;;;95.47;47.48;;;;;;;10.00;82.96;100763.98;1646801;86;21590;-62
2021/10/23 05:32:30;;;;;;;78.70;42.65;;;;;;;10.06;82.82;100756.11;1643896;87;21234;-62
2021/10/23 05:35:10;;;;;;;63.23;36.20;;;;;;;10.07;82.61;100769.56;1646255;86;21201;-62
2021/10/23 05:37:44;;;;;;;68.17;34.85;;;;;;;10.12;82.75;100766.98;1650412;86;21236;-63
2021/10/23 05:40:24;;;;;;;70.08;34.50;;;;;;;10.20;82.88;100770.28;1654101;86;21185;-63
2021/10/23 05:47:15;;;;;;;83.05;41.40;;;;;;;10.36;82.36;100762.06;1696971;84;22033;-64
2021/10/23 05:49:51;;;;;;;77.17;37.83;;;;;;;10.46;82.28;100761.19;1697346;84;21382;-65
2021/10/23 05:52:24;;;;;;;47.63;25.87;;;;;;;10.55;82.28;100762.25;1698674;82;21296;-64
2021/10/23 05:54:58;;;;;;;64.17;32.25;;;;;;;10.63;82.10;100761.97;1696869;84;21206;-65
2021/10/23 05:57:32;;;;;;;57.62;30.55;;;;;;;10.69;81.92;100765.42;1698403;84;21417;-66
2021/10/23 06:00:09;;;;;;;66.22;33.80;;;;;;;10.75;81.70;100760.14;1698040;84;21377;-66
2021/10/23 06:02:48;;;;;;;63.70;33.50;;;;;;;10.81;81.62;100764.42;1697164;84;21207;-65
2021/10/23 06:05:26;;;;;;;69.12;37.25;;;;;;;10.90;81.45;100769.85;1703512;84;21492;-68
2021/10/23 06:08:02;;;;;;;89.37;43.17;;;;;;;10.98;81.37;100757.80;1706560;84;21660;-62
2021/10/23 06:10:39;;;;;;;71.65;38.45;;;;;;;11.07;81.21;100757.04;1700141;84;21543;-63
2021/10/23 06:13:15;;;;;;;64.67;35.08;;;;;;;11.18;80.96;100749.11;1701136;84;21282;-63
2021/10/23 06:15:48;;;;;;;76.10;37.98;;;;;;;11.25;80.68;100746.32;1704988;84;21198;-66
2021/10/23 06:18:22;;;;;;;;;;;;;;;11.33;80.41;100739.97;1703716;84;21597;-64
2021/10/23 06:20:56;;;;;;;69.82;36.20;;;;;;;11.42;80.00;100742.28;1700177;84;20233;-67
2021/10/23 06:23:34;;;;;;;70.83;37.53;;;;;;;11.47;79.69;100737.48;1704885;84;21222;-63
2021/10/23 06:26:07;;;;;;;65.62;36.65;;;;;;;11.58;79.52;100741.83;1701289;84;21186;-63
2021/10/23 06:28:43;;;;;;;77.17;39.45;;;;;;;11.73;79.28;100732.19;1705673;84;22483;-63
2021/10/23 06:31:19;;;;;;;;;;;;;;;11.93;78.99;100732.63;1702076;83;21235;-63
2021/10/23 06:33:56;;;;;;;74.58;39.23;;;;;;;12.18;78.59;100736.06;1700715;84;20279;-62
2021/10/23 06:36:29;;;;;;;67.25;37.30;;;;;;;12.42;77.98;100733.07;1706425;84;21465;-63
2021/10/23 06:39:03;;;;;;;79.17;37.88;;;;;;;12.64;77.18;100729.36;1699815;83;21230;-62
2021/10/23 06:41:37;;;;;;;77.95;40.23;;;;;;;12.82;76.49;100727.21;1705105;84;21520;-63
2021/10/23 06:44:13;;;;;;;88.33;41.28;;;;;;;13.04;75.91;100727.41;1689082;84;21590;-62
2021/10/23 06:46:48;;;;;;;85.75;39.92;;;;;;;13.24;75.00;100726.45;1696087;84;22006;-63
2021/10/23 06:49:21;;;;;;;;;;;;;;;13.35;74.28;100719.70;1698284;84;21189;-63
2021/10/23 06:51:57;;;;;;;76.53;37.90;;;;;;;13.48;73.70;100715.45;1695965;83;20753;-62
2021/10/23 06:54:31;;;;;;;80.62;42.27;;;;;;;13.57;73.46;100708.48;1696589;84;21201;-62
2021/10/23 06:57:07;;;;;;;82.15;41.68;;;;;;;13.68;73.14;100709.64;1697433;84;21427;-62
2021/10/23 07:00:13;;;;;;;88.92;43.85;;;;;;;13.75;73.02;100709.41;1697798;83;21153;-62
2021/10/23 07:02:47;;;;;;;73.17;37.85;;;;;;;13.86;72.76;100707.88;1702247;84;21193;-62
2021/10/23 07:05:23;;;;;;;66.77;35.50;;;;;;;13.94;72.52;100710.14;1704898;82;21309;-62
2021/10/23 07:07:57;;;;;;;62.98;33.85;;;;;;;14.02;72.18;100708.06;1702572;84;22058;-61
2021/10/23 07:10:32;;;;;;;68.95;35.38;;;;;;;14.12;71.85;100712.31;1702706;84;21203;-61
2021/10/23 07:13:11;;;;;;;69.47;37.38;;;;;;;14.32;71.63;100708.28;1703501;84;21321;-61
2021/10/23 07:15:43;;;;;;;74.12;36.80;;;;;;;14.60;71.26;100712.50;1704611;84;21305;-60
2021/10/23 07:18:17;;;;;;;64.47;36.50;;;;;;;14.94;70.59;100712.16;1703819;84;21325;-62
2021/10/23 07:20:58;;;;;;;64.77;33.28;;;;;;;15.22;69.64;100712.84;1703557;84;21187;-62
2021/10/23 07:23:30;;;;;;;58.75;32.13;;;;;;;15.39;68.81;100707.52;1703486;83;21226;-64
2021/10/23 07:26:08;;;;;;;52.27;30.92;;;;;;;15.44;67.87;100707.92;1704388;84;21301;-63
2021/10/23 07:28:45;;;;;;;44.65;27.00;;;;;;;15.43;67.61;100708.02;1703470;84;21198;-64
2021/10/23 07:31:19;;;;;;;41.23;24.80;;;;;;;15.41;67.42;100712.63;1702837;84;21242;-63
2021/10/23 07:33:52;;;;;;;45.88;24.25;;;;;;;15.40;67.26;100710.99;1703565;84;22039;-63
2021/10/23 07:36:27;;;;;;;43.78;23.73;;;;;;;15.39;66.94;100710.16;1703086;84;21450;-62
2021/10/23 07:39:10;;;;;;;41.83;23.38;;;;;;;15.38;66.88;100705.86;1704707;84;21587;-62
2021/10/23 07:41:39;;;;;;;43.38;24.45;;;;;;;15.46;66.85;100698.52;1687282;84;21213;-61
2021/10/23 07:44:17;;;;;;;43.58;24.57;;;;;;;15.64;66.62;100698.45;1677824;84;21253;-62
2021/10/23 07:46:50;;;;;;;45.73;23.38;;;;;;;15.91;66.12;100699.05;1704892;84;21210;-62
2021/10/23 07:49:24;;;;;;;42.20;23.02;;;;;;;16.48;65.56;100691.30;1684993;84;22175;-64
2021/10/23 07:52:02;;;;;;;84.05;25.45;;;;;;;17.15;64.25;100690.97;1691448;84;21603;-64
2021/10/23 07:54:38;;;;;;;44.70;24.72;;;;;;;17.52;62.39;100696.22;1702978;84;21222;-63
2021/10/23 07:57:13;;;;;;;37.53;23.67;;;;;;;17.56;61.36;100692.22;1704485;84;21313;-64
2021/10/23 07:59:49;;;;;;;38.73;23.15;;;;;;;17.47;60.94;100698.02;1704488;84;21198;-63
2021/10/23 08:02:22;;;;;;;43.30;24.27;;;;;;;17.31;60.46;100692.28;1704049;84;21202;-62
2021/10/23 08:04:58;;;;;;;42.10;23.25;;;;;;;17.19;60.61;100698.09;1702969;83;21214;-66
2021/10/23 08:07:32;;;;;;;41.95;23.60;;;;;;;17.18;60.68;100696.42;1677088;84;21301;-65
2021/10/23 08:10:06;;;;;;;38.50;23.02;;;;;;;17.17;60.59;100696.91;1689594;85;22146;-67
2021/10/23 08:12:42;;;;;;;47.23;23.85;;;;;;;17.19;60.63;100704.70;1632785;86;21764;-64
2021/10/23 08:15:18;;;;;;;43.40;23.75;;;;;;;17.18;60.62;100697.25;1633414;87;21621;-65
2021/10/23 08:17:51;;;;;;;42.77;24.73;;;;;;;17.16;60.52;100696.59;1661965;86;21187;-65
2021/10/23 08:20:27;;;;;;;46.10;24.35;;;;;;;17.16;60.55;100695.27;1660360;86;21498;-64
2021/10/23 08:23:02;;;;;;;37.75;22.30;;;;;;;17.20;60.59;100690.45;1661101;86;21477;-64
2021/10/23 08:29:47;;;;;;;41.48;20.43;;;;;;;17.09;60.28;100699.59;1661971;86;21187;-67
2021/10/23 08:32:20;;;;;;;;;;;;;;;16.85;60.59;100703.56;1662894;86;21484;-65
2021/10/23 08:39:04;;;;;;;41.60;22.17;;;;;;;16.57;61.04;100707.52;1685871;85;22025;-65
2021/10/23 08:41:38;;;;;;;40.80;21.12;;;;;;;16.37;61.51;100706.95;1684970;85;21336;-64
2021/10/23 08:44:12;;;;;;;42.35;21.68;;;;;;;16.29;61.86;100711.41;1685659;85;21381;-65
2021/10/23 08:46:48;;;;;;;41.40;23.05;;;;;;;16.26;62.10;100709.91;1684946;85;22140;-64
2021/10/23 08:49:24;;;;;;;45.90;23.12;;;;;;;16.23;62.06;100712.03;1712756;83;21603;-66
2021/10/23 08:52:00;;;;;;;33.60;23.07;;;;;;;16.18;62.21;100699.31;1684890;85;21352;-66
2021/10/23 08:54:38;;;;;;;38.37;22.70;;;;;;;16.17;62.30;100701.61;1691232;83;21287;-63
2021/10/23 08:57:11;;;;;;;38.28;21.87;;;;;;;16.09;62.12;100698.97;1713096;83;21644;-67
2021/10/23 08:59:44;;;;;;;;;;;;;;;15.98;62.25;100693.95;1715055;83;21264;-64
2021/10/23 09:02:20;;;;;;;52.30;24.20;;;;;;;15.91;62.59;100690.30;1709853;83;20303;-62
2021/10/23 09:05:00;;;;;;;44.80;24.20;;;;;;;15.80;62.58;100690.59;1681228;84;21193;-63
2021/10/23 09:07:44;;;;;;;42.08;24.52;;;;;;;15.70;62.65;100700.45;1707447;84;21367;-63
2021/10/23 09:10:27;;;;;;;38.92;21.62;;;;;;;15.63;62.91;100706.02;1712963;83;22008;-63
2021/10/23 09:13:05;;;;;;;43.63;24.65;;;;;;;15.58;63.02;100705.66;1713096;83;21336;-63
2021/10/23 09:15:42;;;;;;;62.55;37.23;;;;;;;15.54;63.03;100705.66;1712895;83;21199;-62
2021/10/23 09:18:15;;;;;;;139.10;76.70;;;;;;;15.51;63.17;100700.19;1696594;83;21467;-63
2021/10/23 09:20:51;;;;;;;;;;;;;;;15.48;62.96;100709.25;1715157;82;21212;-63
2021/10/23 09:23:27;;;;;;;135.48;64.47;;;;;;;15.45;62.79;100709.55;1708353;83;20323;-63
2021/10/23 09:26:03;;;;;;;43.15;24.92;;;;;;;15.38;62.88;100696.62;1685126;83;21308;-63
2021/10/23 09:28:38;;;;;;;40.73;23.05;;;;;;;15.32;62.71;100694.62;1714233;83;22156;-65
2021/10/23 09:31:11;;;;;;;76.12;39.92;;;;;;;15.12;63.13;100677.34;1710797;83;22127;-63
2021/10/23 09:33:45;;;;;;;63.02;32.33;;;;;;;15.12;63.13;100677.34;1657717;85;21238;-63
2021/10/23 09:36:24;;;;;;;67.37;35.05;;;;;;;14.97;63.59;100674.11;1656482;85;21225;-64
2021/10/23 09:39:04;;;;;;;57.50;27.73;;;;;;;14.87;64.04;100675.52;1685882;85;21221;-62
2021/10/23 09:41:40;;;;;;;45.92;26.30;;;;;;;14.77;64.37;100684.00;1658556;85;21323;-65
2021/10/23 09:44:20;;;;;;;46.88;28.23;;;;;;;14.72;64.65;100670.45;1684910;85;21246;-64
2021/10/23 09:46:56;;;;;;;42.08;24.18;;;;;;;14.72;64.91;100663.86;1684916;85;21230;-64
2021/10/23 09:49:30;;;;;;;69.22;38.23;;;;;;;14.69;65.01;100662.35;1685847;85;21210;-63
2021/10/23 09:52:07;;;;;;;45.90;24.98;;;;;;;14.66;64.90;100641.57;1696749;83;22146;-64
2021/10/23 09:54:42;;;;;;;49.05;26.57;;;;;;;14.61;65.30;100637.27;1706993;83;21493;-62
2021/10/23 09:57:19;;;;;;;53.65;29.67;;;;;;;14.58;65.33;100654.70;1712909;83;21257;-64
2021/10/23 09:59:57;;;;;;;33.67;21.05;;;;;;;14.57;65.34;100650.39;1714728;83;21186;-64
2021/10/23 10:02:32;;;;;;;29.90;17.92;;;;;;;14.54;65.34;100669.64;1678434;84;21216;-66
2021/10/23 10:05:11;;;;;;;30.57;18.15;;;;;;;14.51;65.54;100667.30;1696525;84;21231;-62
2021/10/23 10:08:10;;;;;;;31.23;19.57;;;;;;;14.50;65.67;100659.89;1697356;84;21221;-65
2021/10/23 10:10:48;;;;;;;52.15;26.37;;;;;;;14.51;65.88;100658.08;1707347;83;21225;-63
2021/10/23 10:13:27;;;;;;;62.83;30.30;;;;;;;14.54;65.94;100653.84;1695911;84;21249;-64
2021/10/23 10:16:02;;;;;;;38.17;21.07;;;;;;;14.56;65.83;100648.76;1698372;84;21249;-64
2021/10/23 10:22:31;;;;;;;44.73;23.40;;;;;;;14.72;65.42;100633.55;1699236;84;21328;-64
2021/10/23 10:25:29;;;;;;;36.33;20.90;;;;;;;14.84;64.99;100633.16;1700992;84;21206;-66
2021/10/23 10:28:14;;;;;;;30.32;17.05;;;;;;;14.97;64.46;100634.56;1699381;84;21366;-65
2021/10/23 10:30:57;;;;;;;27.13;16.10;;;;;;;15.10;64.09;100642.87;1704650;84;21273;-65
2021/10/23 10:33:34;;;;;;;38.70;18.90;;;;;;;15.22;63.42;100648.22;1702373;84;21293;-65
2021/10/23 10:36:28;;;;;;;32.30;16.40;;;;;;;15.30;63.10;100639.05;1681673;84;21286;-64
2021/10/23 10:39:04;;;;;;;26.42;16.52;;;;;;;15.37;62.43;100636.94;1702057;84;21192;-62
2021/10/23 10:44:15;;;;;;;26.23;15.98;;;;;;;15.45;61.94;100633.03;1701980;84;21323;-63
2021/10/23 10:47:08;;;;;;;24.98;15.55;;;;;;;15.53;61.92;100639.33;1701894;83;21519;-66
2021/10/23 10:49:53;;;;;;;26.77;15.32;;;;;;;15.58;61.65;100648.44;1704599;84;21345;-66
2021/10/23 10:52:51;;;;;;;29.75;17.15;;;;;;;15.65;61.41;100644.66;1704648;84;21206;-67
2021/10/23 10:55:27;;;;;;;30.65;17.60;;;;;;;15.72;61.29;100658.88;1704742;84;21203;-63
2021/10/23 10:58:09;;;;;;;27.42;17.00;;;;;;;15.78;61.05;100652.98;1704762;84;21276;-64
2021/10/23 11:00:49;;;;;;;29.80;16.37;;;;;;;15.77;60.63;100659.23;1705265;84;21290;-65
2021/10/23 11:03:44;;;;;;;25.85;17.10;;;;;;;15.75;60.73;100655.92;1698687;84;21533;-66
2021/10/23 11:06:36;;;;;;;32.40;17.75;;;;;;;15.74;60.81;100663.53;1704574;84;21681;-65
2021/10/23 11:09:19;;;;;;;36.23;18.35;;;;;;;15.71;60.86;100663.35;1700126;84;21225;-70
2021/10/23 11:12:02;;;;;;;27.10;16.63;;;;;;;15.68;60.87;100662.83;1699195;84;21276;-67
2021/10/23 11:14:41;;;;;;;32.33;18.65;;;;;;;15.66;61.01;100663.00;1702687;84;21300;-65
2021/10/23 11:17:19;;;;;;;29.98;17.85;;;;;;;15.64;60.96;100667.61;1703300;84;21201;-66
2021/10/23 11:20:00;;;;;;;29.75;16.75;;;;;;;15.67;61.04;100676.52;1702924;84;21284;-67
2021/10/23 11:22:38;;;;;;;27.35;16.35;;;;;;;15.69;60.99;100665.30;1702982;84;21346;-66
2021/10/23 11:25:17;;;;;;;;;;;;;;;15.73;60.93;100667.14;1705286;84;21205;-66
2021/10/23 11:27:56;;;;;;;28.80;15.60;;;;;;;15.75;60.87;100667.81;1704517;84;20164;-66
2021/10/23 11:30:30;;;;;;;25.27;15.50;;;;;;;15.74;60.96;100660.37;1704342;84;21756;-65
2021/10/23 11:33:08;;;;;;;25.15;15.75;;;;;;;15.74;60.88;100660.37;1708512;84;21278;-63
2021/10/23 11:35:52;;;;;;;29.95;16.82;;;;;;;15.72;60.78;100663.67;1702019;84;21350;-64
2021/10/23 11:38:30;;;;;;;25.20;16.12;;;;;;;15.71;60.63;100657.24;1703748;84;21198;-66
2021/10/23 11:41:04;;;;;;;28.30;17.50;;;;;;;15.66;60.43;100660.84;1701872;84;21331;-65
2021/10/23 11:43:44;;;;;;;32.38;16.95;;;;;;;15.61;60.43;100657.37;1702403;84;22153;-64
2021/10/23 11:46:18;;;;;;;25.90;17.12;;;;;;;15.59;60.48;100663.79;1702743;84;21273;-65
2021/10/23 11:49:05;;;;;;;28.40;17.67;;;;;;;15.57;60.65;100657.84;1705044;84;21281;-64
2021/10/23 11:51:39;;;;;;;25.80;18.55;;;;;;;15.53;60.75;100653.36;1706387;84;21266;-65
2021/10/23 11:54:16;;;;;;;28.70;17.73;;;;;;;15.51;60.88;100650.06;1680744;84;22137;-66
2021/10/23 11:56:53;;;;;;;29.05;17.55;;;;;;;15.49;60.99;100656.83;1705266;84;21300;-65
2021/10/23 11:59:34;;;;;;;30.82;18.10;;;;;;;15.48;61.12;100655.16;1710243;84;21369;-65
2021/10/23 12:02:20;;;;;;;27.30;18.05;;;;;;;15.45;61.19;100658.63;1706321;84;21286;-63
2021/10/23 12:04:58;;;;;;;30.85;18.92;;;;;;;15.43;61.30;100663.17;1652349;85;21268;-65
2021/10/23 12:07:36;;;;;;;32.13;18.20;;;;;;;15.40;61.30;100659.55;1657144;84;21735;-61
2021/10/23 12:10:12;;;;;;;28.60;18.15;;;;;;;15.39;61.31;100661.35;1674599;85;21176;-65
2021/10/23 12:12:45;;;;;;;32.78;18.92;;;;;;;15.36;61.35;100672.70;1678942;84;21278;-64
2021/10/23 12:15:24;;;;;;;34.38;18.48;;;;;;;15.34;61.43;100674.19;1673931;85;21316;-65
2021/10/23 12:18:01;;;;;;;31.75;17.57;;;;;;;15.33;61.51;100671.20;1673018;84;21213;-67